createdAt,value
2019-01-25T00:01:14.969Z,-2.61
2019-01-25T00:03:44.334Z,-2.61
2019-01-25T00:06:13.688Z,-2.62
2019-01-25T00:08:42.978Z,-2.63
2019-01-25T00:11:12.317Z,-2.64
2019-01-25T00:13:41.613Z,-2.66
2019-01-25T00:16:11.051Z,-2.65
2019-01-25T00:18:40.334Z,-2.66
2019-01-25T00:21:09.755Z,-2.68
2019-01-25T00:23:39.223Z,-2.70
2019-01-25T00:26:08.656Z,-2.71
2019-01-25T00:28:37.958Z,-2.69
2019-01-25T00:31:07.251Z,-2.70
2019-01-25T00:33:36.626Z,-2.71
2019-01-25T00:36:05.969Z,-2.72
2019-01-25T00:38:35.249Z,-2.73
2019-01-25T00:41:04.650Z,-2.72
2019-01-25T00:43:34.024Z,-2.73
2019-01-25T00:46:03.359Z,-2.72
2019-01-25T00:48:32.733Z,-2.72
2019-01-25T00:51:02.104Z,-2.72
2019-01-25T00:53:31.441Z,-2.72
2019-01-25T00:56:00.783Z,-2.69
2019-01-25T00:58:30.141Z,-2.70
2019-01-25T01:00:59.414Z,-2.70
2019-01-25T01:03:28.791Z,-2.73
2019-01-25T01:05:58.157Z,-2.73
2019-01-25T01:08:27.459Z,-2.74
2019-01-25T01:10:56.841Z,-2.73
2019-01-25T01:13:26.170Z,-2.72
2019-01-25T01:15:55.654Z,-2.71
2019-01-25T01:18:25.007Z,-2.70
2019-01-25T01:20:54.409Z,-2.71
2019-01-25T01:23:24.220Z,-2.71
2019-01-25T01:25:53.519Z,-2.70
2019-01-25T01:28:22.914Z,-2.71
2019-01-25T01:30:52.285Z,-2.71
2019-01-25T01:33:21.574Z,-2.71
2019-01-25T01:35:50.836Z,-2.72
2019-01-25T01:38:20.210Z,-2.74
2019-01-25T01:40:49.470Z,-2.74
2019-01-25T01:43:18.817Z,-2.73
2019-01-25T01:45:48.193Z,-2.74
2019-01-25T01:48:17.527Z,-2.74
2019-01-25T01:50:46.902Z,-2.72
2019-01-25T01:53:16.329Z,-2.72
2019-01-25T01:55:45.698Z,-2.71
2019-01-25T01:58:14.998Z,-2.71
2019-01-25T02:00:44.331Z,-2.71
2019-01-25T02:03:13.605Z,-2.71
2019-01-25T02:05:42.933Z,-2.71
2019-01-25T02:08:12.313Z,-2.71
2019-01-25T02:10:41.640Z,-2.71
2019-01-25T02:13:11.017Z,-2.72
2019-01-25T02:15:40.296Z,-2.73
2019-01-25T02:18:09.633Z,-2.72
2019-01-25T02:20:38.949Z,-2.72
2019-01-25T02:23:08.231Z,-2.76
2019-01-25T02:25:37.644Z,-2.80
2019-01-25T02:28:06.925Z,-2.79
2019-01-25T02:30:36.210Z,-2.81
2019-01-25T02:33:05.527Z,-2.92
2019-01-25T02:35:34.811Z,-3.06
2019-01-25T02:38:04.097Z,-3.21
2019-01-25T02:40:38.872Z,-3.21
2019-01-25T02:43:02.733Z,-3.25
2019-01-25T02:45:32.046Z,-3.26
2019-01-25T02:48:01.334Z,-3.32
2019-01-25T02:50:30.658Z,-3.37
2019-01-25T02:53:03.881Z,-3.41
2019-01-25T02:55:29.454Z,-3.47
2019-01-25T02:57:58.905Z,-3.49
2019-01-25T03:00:28.211Z,-3.48
2019-01-25T03:02:57.499Z,-3.55
2019-01-25T03:05:26.821Z,-3.59
2019-01-25T03:07:56.201Z,-3.61
2019-01-25T03:10:28.989Z,-3.72
2019-01-25T03:12:54.876Z,-3.74
2019-01-25T03:15:25.851Z,-3.69
2019-01-25T03:17:55.340Z,-3.73
2019-01-25T03:20:24.863Z,-3.83
2019-01-25T03:22:54.290Z,-3.82
2019-01-25T03:25:25.521Z,-3.93
2019-01-25T03:27:54.939Z,-3.93
2019-01-25T03:30:25.204Z,-3.94
2019-01-25T03:32:54.801Z,-3.96
2019-01-25T03:35:24.921Z,-3.97
2019-01-25T03:37:54.348Z,-3.92
2019-01-25T03:40:27.926Z,-3.88
2019-01-25T03:42:57.239Z,-3.90
2019-01-25T03:45:27.146Z,-3.87
2019-01-25T03:47:56.484Z,-3.85
2019-01-25T03:50:27.810Z,-3.86
2019-01-25T03:52:57.150Z,-3.83
2019-01-25T03:55:26.522Z,-3.84
2019-01-25T03:57:55.818Z,-3.85
2019-01-25T04:00:29.338Z,-3.85
2019-01-25T04:02:58.961Z,-3.85
2019-01-25T04:05:28.212Z,-3.94
2019-01-25T04:07:57.655Z,-3.91
2019-01-25T04:10:28.171Z,-3.97
2019-01-25T04:12:57.545Z,-4.03
2019-01-25T04:15:29.017Z,-4.07
2019-01-25T04:17:58.322Z,-4.05
2019-01-25T04:20:27.695Z,-4.05
2019-01-25T04:22:57.037Z,-4.00
2019-01-25T04:25:26.443Z,-3.99
2019-01-25T04:27:55.791Z,-4.01
2019-01-25T04:30:27.019Z,-4.04
2019-01-25T04:32:56.353Z,-3.98
2019-01-25T04:35:25.758Z,-3.97
2019-01-25T04:37:55.054Z,-3.91
2019-01-25T04:40:24.455Z,-3.88
2019-01-25T04:42:53.779Z,-3.85
2019-01-25T04:45:23.239Z,-3.79
2019-01-25T04:47:52.602Z,-3.87
2019-01-25T04:50:23.645Z,-3.89
2019-01-25T04:52:53.464Z,-3.85
2019-01-25T04:55:24.922Z,-3.82
2019-01-25T04:57:54.317Z,-3.78
2019-01-25T05:00:23.824Z,-3.81
2019-01-25T05:02:57.828Z,-3.86
2019-01-25T05:05:27.366Z,-3.87
2019-01-25T05:08:04.076Z,-3.83
2019-01-25T05:10:33.459Z,-3.81
2019-01-25T05:13:02.916Z,-3.78
2019-01-25T05:15:32.266Z,-3.80
2019-01-25T05:18:01.684Z,-3.82
2019-01-25T05:20:31.006Z,-3.83
2019-01-25T05:23:00.678Z,-3.81
2019-01-25T05:25:30.082Z,-3.83
2019-01-25T05:28:15.795Z,-3.82
2019-01-25T05:31:05.543Z,-3.81
2019-01-25T05:33:34.856Z,-3.80
2019-01-25T05:36:04.698Z,-3.92
2019-01-25T05:38:34.045Z,-3.86
2019-01-25T05:41:03.650Z,-3.88
2019-01-25T05:43:40.952Z,-3.85
2019-01-25T05:46:10.460Z,-3.81
2019-01-25T05:48:39.786Z,-3.82
2019-01-25T05:51:09.101Z,-3.87
2019-01-25T05:53:38.591Z,-3.85
2019-01-25T05:56:08.066Z,-3.86
2019-01-25T05:58:37.417Z,-3.82
2019-01-25T06:01:06.807Z,-3.89
2019-01-25T06:03:36.091Z,-3.95
2019-01-25T06:06:06.520Z,-3.90
2019-01-25T06:08:43.611Z,-3.92
2019-01-25T06:11:07.417Z,-3.90
2019-01-25T06:13:37.389Z,-3.91
2019-01-25T06:16:06.898Z,-3.99
2019-01-25T06:18:36.181Z,-3.99
2019-01-25T06:21:05.615Z,-3.97
2019-01-25T06:23:34.930Z,-4.00
2019-01-25T06:26:04.632Z,-4.03
2019-01-25T06:28:33.990Z,-4.03
2019-01-25T06:31:03.339Z,-4.04
2019-01-25T06:33:32.705Z,-4.00
2019-01-25T06:36:02.032Z,-4.03
2019-01-25T06:38:31.377Z,-4.05
2019-01-25T06:41:00.735Z,-4.03
2019-01-25T06:43:30.112Z,-3.99
2019-01-25T06:45:59.436Z,-4.02
2019-01-25T06:48:28.715Z,-4.01
2019-01-25T06:50:58.056Z,-4.04
2019-01-25T06:53:27.437Z,-4.02
2019-01-25T06:55:56.834Z,-4.00
2019-01-25T06:58:48.313Z,-3.99
2019-01-25T07:01:45.557Z,-3.98
2019-01-25T07:04:14.830Z,-3.94
2019-01-25T07:06:44.099Z,-3.94
2019-01-25T07:09:13.809Z,-3.91
2019-01-25T07:11:43.080Z,-3.93
2019-01-25T07:14:12.444Z,-3.92
2019-01-25T07:16:41.821Z,-3.91
2019-01-25T07:19:11.231Z,-3.89
2019-01-25T07:21:40.509Z,-3.88
2019-01-25T07:24:09.827Z,-3.91
2019-01-25T07:26:39.078Z,-3.92
2019-01-25T07:29:08.458Z,-3.92
2019-01-25T07:31:37.985Z,-3.91
2019-01-25T07:34:07.141Z,-3.90
2019-01-25T07:36:36.440Z,-3.90
2019-01-25T07:39:27.885Z,-3.90
2019-01-25T07:42:00.239Z,-3.91
2019-01-25T07:44:26.646Z,-3.89
2019-01-25T07:46:55.892Z,-3.88
2019-01-25T07:49:25.417Z,-3.83
2019-01-25T07:51:54.743Z,-3.82
2019-01-25T07:54:24.129Z,-3.79
2019-01-25T07:56:53.397Z,-3.75
2019-01-25T07:59:22.862Z,-3.77
2019-01-25T08:01:52.109Z,-3.72
2019-01-25T08:04:21.505Z,-3.71
2019-01-25T08:06:50.808Z,-3.68
2019-01-25T08:09:20.134Z,-3.72
2019-01-25T08:11:49.525Z,-3.72
2019-01-25T08:14:18.876Z,-3.71
2019-01-25T08:16:48.204Z,-3.74
2019-01-25T08:19:17.587Z,-3.75
2019-01-25T08:21:47.073Z,-3.78
2019-01-25T08:24:16.318Z,-3.75
2019-01-25T08:26:45.644Z,-3.72
2019-01-25T08:29:15.026Z,-3.83
2019-01-25T08:31:44.361Z,-3.82
2019-01-25T08:34:13.813Z,-3.83
2019-01-25T08:36:43.135Z,-3.88
2019-01-25T08:39:12.553Z,-3.88
2019-01-25T08:41:41.867Z,-3.91
2019-01-25T08:44:11.202Z,-3.87
2019-01-25T08:46:40.546Z,-3.85
2019-01-25T08:49:09.932Z,-3.78
2019-01-25T08:51:39.417Z,-3.77
2019-01-25T08:54:08.761Z,-3.79
2019-01-25T08:56:38.042Z,-3.82
2019-01-25T08:59:07.320Z,-3.82
2019-01-25T09:01:36.595Z,-3.81
2019-01-25T09:04:05.917Z,-3.81
2019-01-25T09:06:35.224Z,-3.85
2019-01-25T09:09:08.675Z,-3.91
2019-01-25T09:11:37.930Z,-3.95
2019-01-25T09:14:07.314Z,-3.92
2019-01-25T09:16:36.526Z,-3.85
2019-01-25T09:19:05.861Z,-3.73
2019-01-25T09:21:35.131Z,-3.69
2019-01-25T09:24:04.464Z,-3.61
2019-01-25T09:26:33.747Z,-3.74
2019-01-25T09:29:03.062Z,-3.78
2019-01-25T09:31:32.436Z,-3.79
2019-01-25T09:34:01.891Z,-3.79
2019-01-25T09:36:31.108Z,-3.78
2019-01-25T09:39:00.422Z,-3.82
2019-01-25T09:41:29.711Z,-3.79
2019-01-25T09:43:59.215Z,-3.64
2019-01-25T09:46:30.113Z,-3.53
2019-01-25T09:48:57.896Z,-3.46
2019-01-25T09:51:27.303Z,-3.47
2019-01-25T09:53:56.749Z,-3.41
2019-01-25T09:56:26.000Z,-3.26
2019-01-25T09:58:56.382Z,-3.28
2019-01-25T10:01:25.667Z,-3.24
2019-01-25T10:03:54.969Z,-3.22
2019-01-25T10:06:24.250Z,-3.13
2019-01-25T10:08:53.544Z,-3.14
2019-01-25T10:11:23.032Z,-3.09
2019-01-25T10:13:52.328Z,-3.00
2019-01-25T10:16:21.721Z,-2.84
2019-01-25T10:18:51.132Z,-2.83
2019-01-25T10:21:20.457Z,-2.79
2019-01-25T10:23:49.810Z,-2.83
2019-01-25T10:26:19.241Z,-2.78
2019-01-25T10:28:48.619Z,-2.99
2019-01-25T10:31:17.904Z,-3.11
2019-01-25T10:33:47.620Z,-3.24
2019-01-25T10:36:17.046Z,-3.21
2019-01-25T10:38:46.327Z,-3.09
2019-01-25T10:41:16.396Z,-3.06
2019-01-25T10:43:45.643Z,-3.12
2019-01-25T10:46:14.908Z,-3.29
2019-01-25T10:48:44.244Z,-3.48
2019-01-25T10:51:13.579Z,-3.64
2019-01-25T10:53:42.988Z,-3.74
2019-01-25T10:56:12.272Z,-3.71
2019-01-25T10:58:41.591Z,-3.83
2019-01-25T11:01:10.852Z,-3.95
2019-01-25T11:03:40.126Z,-4.01
2019-01-25T11:06:09.395Z,-3.90
2019-01-25T11:08:38.702Z,-3.95
2019-01-25T11:11:08.056Z,-4.01
2019-01-25T11:13:37.392Z,-3.92
2019-01-25T11:16:06.764Z,-3.92
2019-01-25T11:18:36.032Z,-3.77
2019-01-25T11:21:05.348Z,-3.72
2019-01-25T11:23:34.632Z,-3.69
2019-01-25T11:26:04.465Z,-3.74
2019-01-25T11:28:33.722Z,-3.85
2019-01-25T11:31:02.976Z,-3.89
2019-01-25T11:33:32.261Z,-3.83
2019-01-25T11:36:01.568Z,-3.75
2019-01-25T11:38:30.884Z,-3.77
2019-01-25T11:41:00.292Z,-3.78
2019-01-25T11:43:29.694Z,-3.79
2019-01-25T11:45:59.030Z,-3.76
2019-01-25T11:48:28.339Z,-3.72
2019-01-25T11:50:57.658Z,-3.92
2019-01-25T11:53:27.044Z,-3.88
2019-01-25T11:55:56.424Z,-3.91
2019-01-25T11:58:25.698Z,-3.85
2019-01-25T12:00:55.017Z,-3.76
2019-01-25T12:03:24.324Z,-3.68
2019-01-25T12:05:53.728Z,-3.57
2019-01-25T12:08:23.052Z,-3.53
2019-01-25T12:10:52.336Z,-3.57
2019-01-25T12:13:21.704Z,-3.48
2019-01-25T12:15:51.454Z,-3.55
2019-01-25T12:18:20.418Z,-3.60
2019-01-25T12:20:49.653Z,-3.59
2019-01-25T12:23:18.990Z,-3.57
2019-01-25T12:25:48.286Z,-3.71
2019-01-25T12:28:17.624Z,-3.64
2019-01-25T12:30:46.924Z,-3.66
2019-01-25T12:33:16.207Z,-3.62
2019-01-25T12:35:45.733Z,-3.60
2019-01-25T12:38:15.158Z,-3.64
2019-01-25T12:40:44.410Z,-3.48
2019-01-25T12:43:13.772Z,-3.48
2019-01-25T12:45:43.056Z,-3.48
2019-01-25T12:48:12.427Z,-3.44
2019-01-25T12:51:04.042Z,-3.44
2019-01-25T12:53:33.992Z,-3.49
2019-01-25T12:56:03.381Z,-3.52
2019-01-25T12:58:32.684Z,-3.50
2019-01-25T13:01:02.146Z,-3.42
2019-01-25T13:03:31.481Z,-3.34
2019-01-25T13:06:00.808Z,-3.29
2019-01-25T13:08:30.088Z,-3.45
2019-01-25T13:10:59.534Z,-3.40
2019-01-25T13:13:31.622Z,-3.27
2019-01-25T13:15:58.072Z,-3.29
2019-01-25T13:18:27.313Z,-3.26
2019-01-25T13:20:56.712Z,-3.37
2019-01-25T13:23:25.987Z,-3.36
2019-01-25T13:25:55.312Z,-3.26
2019-01-25T13:28:24.662Z,-3.21
2019-01-25T13:30:53.999Z,-3.21
2019-01-25T13:33:23.309Z,-3.15
2019-01-25T13:35:52.730Z,-3.11
2019-01-25T13:38:22.089Z,-3.09
2019-01-25T13:40:51.365Z,-3.16
2019-01-25T13:43:20.735Z,-3.20
2019-01-25T13:45:50.006Z,-3.26
2019-01-25T13:48:19.303Z,-3.19
2019-01-25T13:50:48.622Z,-3.07
2019-01-25T13:53:17.914Z,-3.02
2019-01-25T13:55:47.214Z,-2.73
2019-01-25T13:58:16.551Z,-2.54
2019-01-25T14:00:45.898Z,-2.36
2019-01-25T14:03:15.251Z,-2.09
2019-01-25T14:05:44.597Z,-2.05
2019-01-25T14:08:13.950Z,-2.13
2019-01-25T14:10:43.347Z,-2.17
2019-01-25T14:13:12.625Z,-2.36
2019-01-25T14:15:41.997Z,-2.56
2019-01-25T14:18:11.337Z,-2.67
2019-01-25T14:20:40.648Z,-2.74
2019-01-25T14:23:10.038Z,-2.85
2019-01-25T14:25:39.380Z,-2.94
2019-01-25T14:28:08.689Z,-3.00
2019-01-25T14:30:39.946Z,-2.98
2019-01-25T14:33:09.395Z,-3.04
2019-01-25T14:35:39.429Z,-3.06
2019-01-25T14:38:10.142Z,-3.08
2019-01-25T14:40:39.566Z,-3.01
2019-01-25T14:43:08.842Z,-3.07
2019-01-25T14:45:38.107Z,-3.10
2019-01-25T14:48:13.570Z,-3.12
2019-01-25T14:50:42.949Z,-3.12
2019-01-25T14:53:12.296Z,-3.17
2019-01-25T14:55:41.629Z,-3.18
2019-01-25T14:58:10.892Z,-3.18
2019-01-25T15:00:40.199Z,-3.20
2019-01-25T15:03:09.632Z,-3.24
2019-01-25T15:05:39.017Z,-3.29
2019-01-25T15:08:08.276Z,-3.24
2019-01-25T15:10:37.537Z,-3.25
2019-01-25T15:13:07.901Z,-3.29
2019-01-25T15:15:37.216Z,-3.31
2019-01-25T15:18:06.768Z,-3.29
2019-01-25T15:20:36.150Z,-3.34
2019-01-25T15:23:05.433Z,-3.33
2019-01-25T15:25:34.720Z,-3.32
2019-01-25T15:28:04.006Z,-3.32
2019-01-25T15:30:33.396Z,-3.32
2019-01-25T15:33:02.708Z,-3.29
2019-01-25T15:35:32.062Z,-3.30
2019-01-25T15:38:01.415Z,-3.31
2019-01-25T15:40:30.792Z,-3.26
2019-01-25T15:43:00.146Z,-3.24
2019-01-25T15:45:29.450Z,-3.24
2019-01-25T15:47:58.778Z,-3.23
2019-01-25T15:50:30.275Z,-3.23
2019-01-25T15:52:59.622Z,-3.21
2019-01-25T15:55:29.049Z,-3.18
2019-01-25T15:57:58.367Z,-3.20
2019-01-25T16:00:29.250Z,-3.17
2019-01-25T16:02:58.663Z,-3.15
2019-01-25T16:05:27.995Z,-3.15
2019-01-25T16:07:57.248Z,-3.15
2019-01-25T16:10:26.545Z,-3.13
2019-01-25T16:12:55.896Z,-3.10
2019-01-25T16:15:28.174Z,-3.07
2019-01-25T16:17:56.667Z,-3.05
2019-01-25T16:20:26.041Z,-3.06
2019-01-25T16:22:55.665Z,-3.01
2019-01-25T16:25:33.559Z,-3.23
2019-01-25T16:28:02.876Z,-2.98
2019-01-25T16:30:34.567Z,-2.78
2019-01-25T16:33:03.868Z,-2.67
2019-01-25T16:35:33.198Z,-2.73
2019-01-25T16:38:02.565Z,-2.76
2019-01-25T16:40:31.919Z,-2.77
2019-01-25T16:43:01.221Z,-2.75
2019-01-25T16:45:39.274Z,-2.77
2019-01-25T16:48:08.774Z,-2.76
2019-01-25T16:50:39.767Z,-2.75
2019-01-25T16:53:09.070Z,-2.74
2019-01-25T16:55:38.479Z,-2.73
2019-01-25T16:58:07.822Z,-2.72
2019-01-25T17:00:39.569Z,-2.65
2019-01-25T17:03:08.900Z,-2.67
2019-01-25T17:05:45.052Z,-2.69
2019-01-25T17:08:11.798Z,-2.69
2019-01-25T17:10:41.250Z,-2.68
2019-01-25T17:13:10.451Z,-2.63
2019-01-25T17:15:39.706Z,-2.63
2019-01-25T17:18:09.038Z,-2.61
2019-01-25T17:20:38.338Z,-2.61
2019-01-25T17:23:07.834Z,-2.60
2019-01-25T17:25:37.251Z,-2.58
2019-01-25T17:28:08.116Z,-2.57
2019-01-25T17:30:38.544Z,-2.56
2019-01-25T17:33:08.051Z,-2.55
2019-01-25T17:35:37.384Z,-2.54
2019-01-25T17:38:07.470Z,-2.51
2019-01-25T17:40:46.507Z,-2.50
2019-01-25T17:43:08.915Z,-2.48
2019-01-25T17:45:38.241Z,-2.52
2019-01-25T17:48:07.774Z,-2.49
2019-01-25T17:50:37.118Z,-2.52
2019-01-25T17:53:06.480Z,-2.52
2019-01-25T17:55:35.884Z,-2.52
2019-01-25T17:58:08.272Z,-2.52
2019-01-25T18:00:47.628Z,-2.51
2019-01-25T18:03:17.323Z,-2.35
2019-01-25T18:05:46.669Z,-2.05
2019-01-25T18:08:15.961Z,-1.67
2019-01-25T18:10:45.399Z,-1.62
2019-01-25T18:13:14.762Z,-1.79
2019-01-25T18:15:44.053Z,-1.95
2019-01-25T18:18:13.483Z,-2.10
2019-01-25T18:20:42.805Z,-2.24
2019-01-25T18:23:12.153Z,-2.28
2019-01-25T18:26:02.549Z,-2.33
2019-01-25T18:28:39.207Z,-2.37
2019-01-25T18:31:12.496Z,-2.45
2019-01-25T18:33:42.234Z,-2.53
2019-01-25T18:36:11.268Z,-2.55
2019-01-25T18:38:40.634Z,-2.59
2019-01-25T18:41:10.572Z,-2.62
2019-01-25T18:43:39.899Z,-2.64
2019-01-25T18:46:09.220Z,-2.70
2019-01-25T18:48:38.758Z,-2.71
2019-01-25T18:51:08.130Z,-2.74
2019-01-25T18:53:37.433Z,-2.75
2019-01-25T18:56:10.367Z,-2.76
2019-01-25T18:58:39.670Z,-2.75
2019-01-25T19:01:09.018Z,-2.80
2019-01-25T19:03:38.367Z,-2.78
2019-01-25T19:06:07.661Z,-2.79
2019-01-25T19:08:37.041Z,-2.77
2019-01-25T19:11:06.371Z,-2.79
2019-01-25T19:13:35.799Z,-2.79
2019-01-25T19:16:05.611Z,-2.79
2019-01-25T19:18:34.929Z,-2.75
2019-01-25T19:21:04.375Z,-2.75
2019-01-25T19:23:33.769Z,-2.73
2019-01-25T19:26:03.070Z,-2.72
2019-01-25T19:28:33.253Z,-2.68
2019-01-25T19:31:02.622Z,-2.68
2019-01-25T19:33:35.274Z,-2.64
2019-01-25T19:36:04.887Z,-2.64
2019-01-25T19:38:34.317Z,-2.62
2019-01-25T19:41:03.613Z,-2.63
2019-01-25T19:43:35.792Z,-2.63
2019-01-25T19:46:05.211Z,-2.62
2019-01-25T19:48:34.538Z,-2.61
2019-01-25T19:51:03.992Z,-2.59
2019-01-25T19:53:33.364Z,-2.57
2019-01-25T19:56:02.749Z,-2.55
2019-01-25T19:58:35.323Z,-2.50
2019-01-25T20:01:07.986Z,-2.48
2019-01-25T20:03:37.916Z,-2.43
2019-01-25T20:06:09.829Z,-2.41
2019-01-25T20:08:36.295Z,-2.37
2019-01-25T20:11:05.692Z,-2.35
2019-01-25T20:13:37.598Z,-2.32
2019-01-25T20:16:12.395Z,-2.30
2019-01-25T20:18:41.760Z,-2.25
2019-01-25T20:21:11.165Z,-2.24
2019-01-25T20:23:40.817Z,-2.19
2019-01-25T20:26:10.221Z,-2.16
2019-01-25T20:28:42.597Z,-2.12
2019-01-25T20:31:12.085Z,-2.10
2019-01-25T20:33:41.450Z,-2.06
2019-01-25T20:36:10.860Z,-2.04
2019-01-25T20:38:40.262Z,-2.00
2019-01-25T20:41:12.871Z,-1.97
2019-01-25T20:43:42.211Z,-1.90
2019-01-25T20:46:11.573Z,-1.87
2019-01-25T20:48:40.998Z,-1.85
2019-01-25T20:51:10.403Z,-1.84
2019-01-25T20:53:39.786Z,-1.81
2019-01-25T20:56:10.165Z,-1.81
2019-01-25T20:58:39.477Z,-1.78
2019-01-25T21:01:09.092Z,-1.77
2019-01-25T21:03:40.743Z,-1.74
2019-01-25T21:06:10.148Z,-1.71
2019-01-25T21:08:39.525Z,-1.71
2019-01-25T21:11:08.969Z,-1.67
2019-01-25T21:13:38.251Z,-1.68
2019-01-25T21:16:07.564Z,-1.69
2019-01-25T21:18:36.946Z,-1.67
2019-01-25T21:21:06.265Z,-1.66
2019-01-25T21:23:35.588Z,-1.66
2019-01-25T21:26:04.908Z,-1.46
2019-01-25T21:28:34.206Z,-1.11
2019-01-25T21:31:08.677Z,-0.76
2019-01-25T21:33:38.572Z,-0.97
2019-01-25T21:36:07.913Z,-1.15
2019-01-25T21:38:37.210Z,-1.26
2019-01-25T21:41:06.496Z,-1.31
2019-01-25T21:43:35.818Z,-1.36
2019-01-25T21:46:05.140Z,-1.40
2019-01-25T21:48:34.454Z,-1.41
2019-01-25T21:51:03.742Z,-1.42
2019-01-25T21:53:33.173Z,-1.39
2019-01-25T21:56:02.509Z,-1.32
2019-01-25T21:58:31.845Z,-1.29
2019-01-25T22:01:01.117Z,-1.25
2019-01-25T22:03:33.577Z,-1.17
2019-01-25T22:06:02.846Z,-1.12
2019-01-25T22:08:32.205Z,-1.06
2019-01-25T22:11:01.494Z,-1.02
2019-01-25T22:13:30.820Z,-0.96
2019-01-25T22:16:00.195Z,-0.93
2019-01-25T22:18:29.461Z,-0.88
2019-01-25T22:20:58.740Z,-0.81
2019-01-25T22:23:28.059Z,-0.78
2019-01-25T22:25:57.344Z,-0.75
2019-01-25T22:28:26.641Z,-0.71
2019-01-25T22:30:55.933Z,-0.69
2019-01-25T22:33:25.219Z,-0.65
2019-01-25T22:35:54.535Z,-0.62
2019-01-25T22:38:23.811Z,-0.59
2019-01-25T22:40:53.132Z,-0.56
2019-01-25T22:43:22.440Z,-0.52
2019-01-25T22:45:58.371Z,-0.48
2019-01-25T22:48:21.098Z,-0.46
2019-01-25T22:50:50.446Z,-0.39
2019-01-25T22:53:19.718Z,-0.36
2019-01-25T22:55:51.787Z,-0.32
2019-01-25T22:58:21.071Z,-0.30
2019-01-25T23:01:23.329Z,-0.27
2019-01-25T23:04:20.497Z,-0.25
2019-01-25T23:06:56.800Z,-0.17
2019-01-25T23:09:31.931Z,-0.13
2019-01-25T23:12:03.594Z,-0.07
2019-01-25T23:14:33.445Z,-0.09
2019-01-25T23:17:02.825Z,-0.04
2019-01-25T23:19:32.198Z,-0.04
2019-01-25T23:22:01.581Z,-0.03
2019-01-25T23:24:30.966Z,-0.01
2019-01-25T23:27:03.902Z,0.03
2019-01-25T23:29:33.166Z,0.05
2019-01-25T23:32:02.480Z,0.05
2019-01-25T23:34:31.854Z,0.06
2019-01-25T23:37:01.144Z,0.07
2019-01-25T23:39:30.432Z,0.12
2019-01-25T23:42:00.071Z,0.13
2019-01-25T23:44:29.392Z,0.13
2019-01-25T23:46:58.667Z,0.14
2019-01-25T23:49:27.987Z,0.18
2019-01-25T23:51:57.326Z,0.18
2019-01-25T23:54:26.625Z,0.20
2019-01-25T23:56:58.452Z,0.20
2019-01-25T23:59:29.908Z,0.21
